bpm-power.com alexa rank chart, bpm-power.com alexa rank daily changes

bpm-power.com alexa rank chart, bpm-power.com alexa rank daily changes

bpm-power.com
Actual rank:
82 449

RANK HISTORY

Date Rank Diff
2018/04/24 82 449 +29 112
2018/04/23 53 337 +17 308
2018/04/22 36 029 -21 728
2018/04/21 57 757 -21 914
2018/04/20 79 671 +16 095
2018/04/19 63 576 +17 136
2018/04/18 46 440 -95 447
2018/04/17 141 887 +72 078
2018/04/16 69 809 +4 296
2018/04/15 65 513 +7 257
2018/04/14 58 256 +18 785
2018/04/13 39 471 -97 061
2018/04/12 136 532 +69 988
2018/04/11 66 544 +27 559
2018/04/10 38 985 +5 259
2018/04/09 33 726 -41 372
2018/04/08 75 098 +2 092
2018/04/07 73 006 +28 799
2018/04/06 44 207 +983
2018/04/05 43 224 -33 011
2018/04/04 76 235 -80 471
2018/04/03 156 706 +20 094
2018/04/02 136 612 +60 505
2018/04/01 76 107 +26 660
2018/03/31 49 447 +10 039
2018/03/30 39 408 -15 625
2018/03/29 55 033 -10 240
2018/03/28 65 273 -80 738
2018/03/27 146 011 +92 020
2018/03/26 53 991 +18 582
2018/03/25 35 409 -12 449
2018/03/24 47 858 -24 865
2018/03/23 72 723 +36 053
2018/03/22 36 670 -14 605
2018/03/21 51 275 -6 513
2018/03/20 57 788 +14 438
2018/03/19 43 350 +3 580
2018/03/18 39 770 -7 529
2018/03/17 47 299 -12 809
2018/03/16 60 108 +24 742
2018/03/15 35 366 -11 008
2018/03/14 46 374 +3 032
2018/03/13 43 342 +2 376
2018/03/12 40 966 +8 835
2018/03/11 32 131 -10 275
2018/03/10 42 406 +4 251
2018/03/09 38 155 -28 795
2018/03/08 66 950 +23 006
2018/03/07 43 944 -18 306
2018/03/06 62 250 +19 278
2018/03/05 42 972 +9 688
2018/03/04 33 284 -6 272
2018/03/03 39 556 -13 135
2018/03/02 52 691 +5 001
2018/03/01 47 690 +16 970
2018/02/28 30 720 -8 511
2018/02/27 39 231 -56 240
2018/02/26 95 471 +58 466
2018/02/25 37 005 +6 688
2018/02/24 30 317 -4 984
2018/02/23 35 301

WIDGET FOR YOUR SITE

DOMAINS WITH THE NEAREST RANK

Domain Rank
porsemani.ir 82 444
boosteria.org 82 445
adultlook.com 82 446
gfrevenge.com 82 447
newesc.com 82 448
bpm-power.com 82 449
humordido.net 82 450
ragnarok.uol.com.br 82 451
download-instagram.ru 82 452
berlin-brandenburg.de 82 453
choosetoencrypt.com 82 454

DOMAINS WITH THE NEAREST RANK BY TLD .com

Domain Rank
almirbad.com 82 442
seekoutrecovery.com 82 443
adultlook.com 82 446
gfrevenge.com 82 447
newesc.com 82 448
bpm-power.com 82 449
choosetoencrypt.com 82 454
wittchen.com 82 456
robloxid.com 82 459
alexlarin.com 82 461
informagiovani-italia.com 82 463